KSBP

San Luis County Regional Airport

San Luis Obispo, California, USA
METAR KSBP 110256Z 26006KT 10SM CLR 12/04 A3007 RMK AO2 SLP182 T01220039 53008
Observed Flight Rules
Dec-11 @ 02:56 UTC (23 minutes ago) Visual Flight Rules
Wind Visibility Clouds
260° at 6 knots 10 miles
  • Clear skies
Temperatures Readings
Current 12°C / 54°F
Dewpoint 4°C / 39°F
Humidity 58%
Altimeter 30.07" Hg
Pressure 1018.2 hPa
Elevation 59
METAR KSBP 110256Z 26006KT 10SM CLR 12/04 A3007 RMK AO2 SLP182 T01220039 53008
Observed Flight Rules
Dec-11 @ 02:56 UTC
(23 minutes ago)
VFR
Wind Visibility
260° at 6 knots 10 miles
Clouds
  • Clear skies
Temperature Dewpoint
12°C / 54°F 4°C / 39°F
Humidity Altimeter Pressure
58% 30.07" Hg 1018.2 hPa